createdAt,value
2023-06-30T00:00:18.604Z,94531.09
2023-06-30T00:02:49.226Z,94520.41
2023-06-30T00:05:16.326Z,94524.34
2023-06-30T00:07:46.727Z,94526.03
2023-06-30T00:10:13.547Z,94522.00
2023-06-30T00:12:40.313Z,94519.53
2023-06-30T00:15:07.361Z,94510.31
2023-06-30T00:17:34.264Z,94500.19
2023-06-30T00:20:01.236Z,94499.75
2023-06-30T00:22:28.152Z,94499.19
2023-06-30T00:24:56.828Z,94482.63
2023-06-30T00:27:24.150Z,94482.00
2023-06-30T00:29:50.998Z,94480.03
2023-06-30T00:32:20.149Z,94471.28
2023-06-30T00:34:47.114Z,94471.09
2023-06-30T00:37:15.433Z,94484.00
2023-06-30T00:39:42.288Z,94483.16
2023-06-30T00:42:09.567Z,94478.06
2023-06-30T00:44:36.622Z,94479.81
2023-06-30T00:47:03.932Z,94485.13
2023-06-30T00:49:32.352Z,94478.56
2023-06-30T00:52:01.124Z,94487.88
2023-06-30T00:54:28.615Z,94482.84
2023-06-30T00:56:55.843Z,94489.56
2023-06-30T00:59:23.128Z,94473.00
2023-06-30T01:01:59.947Z,94468.22
2023-06-30T01:04:32.833Z,94470.31
2023-06-30T01:07:07.924Z,94479.00
2023-06-30T01:09:39.992Z,94469.88
2023-06-30T01:12:08.705Z,94471.56
2023-06-30T01:14:37.596Z,94474.47
2023-06-30T01:17:06.967Z,94469.69
2023-06-30T01:19:45.947Z,94470.00
2023-06-30T01:22:20.816Z,94468.00
2023-06-30T01:24:50.490Z,94462.81
2023-06-30T01:27:17.609Z,94456.31
2023-06-30T01:29:44.896Z,94457.88
2023-06-30T01:32:18.081Z,94457.13
2023-06-30T01:34:46.381Z,94452.53
2023-06-30T01:37:14.790Z,94444.88
2023-06-30T01:39:41.824Z,94446.22
2023-06-30T01:42:09.545Z,94442.59
2023-06-30T01:44:37.626Z,94438.06
2023-06-30T01:47:05.894Z,94440.34
2023-06-30T01:49:34.418Z,94449.88
2023-06-30T01:52:02.404Z,94457.56
2023-06-30T01:54:29.598Z,94443.38
2023-06-30T01:56:56.518Z,94439.91
2023-06-30T01:59:23.692Z,94439.91
2023-06-30T02:01:50.551Z,94442.16
2023-06-30T02:04:17.703Z,94437.31
2023-06-30T02:06:47.785Z,94439.09
2023-06-30T02:09:14.649Z,94443.31
2023-06-30T02:11:41.463Z,94444.03
2023-06-30T02:14:08.229Z,94430.41
2023-06-30T02:16:35.006Z,94445.72
2023-06-30T02:19:01.821Z,94433.97
2023-06-30T02:21:28.608Z,94436.56
2023-06-30T02:23:55.579Z,94437.47
2023-06-30T02:26:22.425Z,94438.56
2023-06-30T02:28:50.054Z,94439.19
2023-06-30T02:31:17.769Z,94448.81
2023-06-30T02:33:44.833Z,94449.16
2023-06-30T02:36:11.801Z,94450.97
2023-06-30T02:38:38.579Z,94449.16
2023-06-30T02:41:05.387Z,94446.06
2023-06-30T02:43:32.136Z,94438.88
2023-06-30T02:45:59.498Z,94441.06
2023-06-30T02:48:27.994Z,94435.16
2023-06-30T02:50:54.965Z,94433.16
2023-06-30T02:53:21.798Z,94440.84
2023-06-30T02:55:49.158Z,94426.81
2023-06-30T02:58:16.370Z,94425.41
2023-06-30T03:00:43.164Z,94422.38
2023-06-30T03:03:11.054Z,94421.75
2023-06-30T03:05:38.879Z,94429.22
2023-06-30T03:08:07.895Z,94432.91
2023-06-30T03:10:34.754Z,94425.97
2023-06-30T03:13:01.565Z,94430.03
2023-06-30T03:15:29.076Z,94429.00
2023-06-30T03:17:56.753Z,94440.63
2023-06-30T03:20:24.755Z,94444.00
2023-06-30T03:22:54.260Z,94445.63
2023-06-30T03:25:21.228Z,94453.28
2023-06-30T03:27:48.520Z,94454.31
2023-06-30T03:30:17.325Z,94460.75
2023-06-30T03:32:46.731Z,94450.56
2023-06-30T03:35:16.212Z,94447.72
2023-06-30T03:37:43.004Z,94441.44
2023-06-30T03:40:10.995Z,94431.22
2023-06-30T03:42:38.202Z,94431.09
2023-06-30T03:45:05.913Z,94432.53
2023-06-30T03:47:33.941Z,94425.34
2023-06-30T03:50:00.912Z,94437.56
2023-06-30T03:52:27.804Z,94440.94
2023-06-30T03:54:54.962Z,94440.41
2023-06-30T03:57:21.795Z,94441.22
2023-06-30T03:59:48.620Z,94443.16
2023-06-30T04:02:15.507Z,94433.25
2023-06-30T04:04:42.350Z,94419.72
2023-06-30T04:07:09.317Z,94411.06
2023-06-30T04:09:36.484Z,94406.00
2023-06-30T04:12:03.754Z,94409.28
2023-06-30T04:14:30.659Z,94401.19
2023-06-30T04:16:59.305Z,94400.72
2023-06-30T04:19:26.420Z,94391.13
2023-06-30T04:21:53.272Z,94411.78
2023-06-30T04:24:20.888Z,94400.53
2023-06-30T04:26:47.656Z,94404.31
2023-06-30T04:29:16.514Z,94396.59
2023-06-30T04:31:44.090Z,94405.25
2023-06-30T04:34:11.010Z,94402.63
2023-06-30T04:36:37.820Z,94400.38
2023-06-30T04:39:04.738Z,94389.84
2023-06-30T04:41:31.665Z,94390.78
2023-06-30T04:43:58.567Z,94393.34
2023-06-30T04:46:26.601Z,94392.53
2023-06-30T04:48:54.286Z,94391.59
2023-06-30T04:51:21.110Z,94396.16
2023-06-30T04:53:47.920Z,94399.78
2023-06-30T04:56:14.714Z,94408.75
2023-06-30T04:58:41.466Z,94400.56
2023-06-30T05:01:08.282Z,94388.78
2023-06-30T05:03:35.222Z,94382.13
2023-06-30T05:06:02.041Z,94382.84
2023-06-30T05:08:28.906Z,94391.16
2023-06-30T05:10:55.709Z,94385.94
2023-06-30T05:13:22.522Z,94388.13
2023-06-30T05:15:49.763Z,94384.03
2023-06-30T05:18:16.851Z,94396.16
2023-06-30T05:20:43.752Z,94389.06
2023-06-30T05:23:10.540Z,94386.56
2023-06-30T05:25:38.071Z,94380.88
2023-06-30T05:28:05.036Z,94387.00
2023-06-30T05:30:31.882Z,94387.78
2023-06-30T05:32:58.758Z,94384.50
2023-06-30T05:35:25.536Z,94382.94
2023-06-30T05:37:52.409Z,94387.03
2023-06-30T05:40:19.343Z,94382.47
2023-06-30T05:42:46.138Z,94385.47
2023-06-30T05:45:12.932Z,94381.06
2023-06-30T05:47:39.791Z,94376.72
2023-06-30T05:50:07.293Z,94376.53
2023-06-30T05:52:34.151Z,94379.44
2023-06-30T05:55:00.989Z,94396.19
2023-06-30T05:57:30.695Z,94391.66
2023-06-30T05:59:57.447Z,94401.25
2023-06-30T06:02:24.630Z,94406.28
2023-06-30T06:04:52.928Z,94412.09
2023-06-30T06:07:20.273Z,94416.94
2023-06-30T06:09:47.203Z,94421.22
2023-06-30T06:12:14.006Z,94415.44
2023-06-30T06:14:41.092Z,94420.50
2023-06-30T06:17:08.115Z,94420.97
2023-06-30T06:19:35.077Z,94432.56
2023-06-30T06:22:01.954Z,94429.75
2023-06-30T06:24:28.994Z,94437.50
2023-06-30T06:26:55.810Z,94435.50
2023-06-30T06:29:25.460Z,94436.41
2023-06-30T06:31:55.087Z,94444.38
2023-06-30T06:34:23.117Z,94443.97
2023-06-30T06:36:49.981Z,94448.53
2023-06-30T06:39:16.849Z,94450.59
2023-06-30T06:41:43.705Z,94441.47
2023-06-30T06:44:16.201Z,94440.75
2023-06-30T06:46:44.647Z,94430.38
2023-06-30T06:49:11.821Z,94430.88
2023-06-30T06:51:38.677Z,94432.94
2023-06-30T06:54:05.464Z,94435.91
2023-06-30T06:56:32.465Z,94436.84
2023-06-30T06:58:59.483Z,94443.97
2023-06-30T07:01:26.310Z,94441.19
2023-06-30T07:03:53.203Z,94438.91
2023-06-30T07:06:22.485Z,94442.78
2023-06-30T07:08:50.200Z,94436.28
2023-06-30T07:11:19.168Z,94432.69
2023-06-30T07:13:46.003Z,94445.13
2023-06-30T07:16:12.912Z,94440.66
2023-06-30T07:18:39.749Z,94444.75
2023-06-30T07:21:06.954Z,94431.72
2023-06-30T07:23:34.190Z,94437.56
2023-06-30T07:26:01.063Z,94441.28
2023-06-30T07:28:27.932Z,94441.59
2023-06-30T07:30:54.786Z,94441.34
2023-06-30T07:33:21.638Z,94441.13
2023-06-30T07:35:48.947Z,94432.91
2023-06-30T07:38:16.098Z,94445.38
2023-06-30T07:43:12.665Z,94436.13
2023-06-30T07:45:39.518Z,94445.44
2023-06-30T07:48:06.679Z,94448.47
2023-06-30T07:50:33.617Z,94449.41
2023-06-30T07:53:02.479Z,94458.28
2023-06-30T07:55:29.395Z,94461.09
2023-06-30T07:57:56.302Z,94459.41
2023-06-30T08:00:29.924Z,94458.09
2023-06-30T08:02:56.919Z,94460.31
2023-06-30T08:05:24.256Z,94465.22
2023-06-30T08:07:51.835Z,94463.50
2023-06-30T08:10:19.900Z,94464.13
2023-06-30T08:12:46.985Z,94468.38
2023-06-30T08:15:13.953Z,94467.78
2023-06-30T08:17:56.547Z,94475.38
2023-06-30T08:20:28.731Z,94471.19
2023-06-30T08:22:55.966Z,94470.41
2023-06-30T08:25:24.507Z,94471.78
2023-06-30T08:27:52.443Z,94472.44
2023-06-30T08:30:22.053Z,94458.81
2023-06-30T08:32:50.938Z,94477.34
2023-06-30T08:35:17.866Z,94467.78
2023-06-30T08:37:44.827Z,94473.94
2023-06-30T08:40:12.131Z,94476.47
2023-06-30T08:42:44.061Z,94471.41
2023-06-30T08:45:13.731Z,94467.94
2023-06-30T08:47:41.018Z,94465.19
2023-06-30T08:50:09.251Z,94462.63
2023-06-30T08:52:36.368Z,94467.84
2023-06-30T08:55:04.185Z,94469.81
2023-06-30T08:57:32.635Z,94470.28
2023-06-30T08:59:59.404Z,94470.53
2023-06-30T09:02:27.541Z,94466.63
2023-06-30T09:04:56.051Z,94477.63
2023-06-30T09:07:39.972Z,94467.56
2023-06-30T09:10:10.400Z,94471.31
2023-06-30T09:12:40.464Z,94465.78
2023-06-30T09:15:10.219Z,94460.94
2023-06-30T09:17:37.137Z,94455.38
2023-06-30T09:20:04.209Z,94459.88
2023-06-30T09:22:52.416Z,94453.56
2023-06-30T09:25:26.974Z,94457.50
2023-06-30T09:27:55.024Z,94459.47
2023-06-30T09:30:35.920Z,94453.06
2023-06-30T09:33:03.216Z,94454.38
2023-06-30T09:35:41.514Z,94453.50
2023-06-30T09:38:12.086Z,94457.09
2023-06-30T09:40:38.948Z,94457.09
2023-06-30T09:43:06.344Z,94455.63
2023-06-30T09:45:33.190Z,94448.25
2023-06-30T09:48:00.216Z,94452.56
2023-06-30T09:50:28.765Z,94452.31
2023-06-30T09:52:55.774Z,94443.09
2023-06-30T09:55:22.597Z,94445.88
2023-06-30T09:57:49.319Z,94435.28
2023-06-30T10:00:33.642Z,94447.63
2023-06-30T10:03:07.379Z,94443.00
2023-06-30T10:05:34.447Z,94448.63
2023-06-30T10:08:02.468Z,94450.34
2023-06-30T10:10:30.241Z,94450.19
2023-06-30T10:12:59.796Z,94442.50
2023-06-30T10:15:27.778Z,94435.56
2023-06-30T10:17:56.327Z,94441.41
2023-06-30T10:20:33.884Z,94436.13
2023-06-30T10:23:06.250Z,94432.41
2023-06-30T10:25:37.650Z,94434.81
2023-06-30T10:28:05.916Z,94433.44
2023-06-30T10:30:33.446Z,94429.16
2023-06-30T10:33:00.379Z,94436.06
2023-06-30T10:35:28.885Z,94438.13
2023-06-30T10:37:57.241Z,94435.19
2023-06-30T10:40:26.081Z,94439.28
2023-06-30T10:42:55.309Z,94439.50
2023-06-30T10:45:27.521Z,94440.47
2023-06-30T10:47:54.418Z,94447.81
2023-06-30T10:50:21.209Z,94449.28
2023-06-30T10:52:55.396Z,94445.72
2023-06-30T10:55:24.057Z,94447.16
2023-06-30T10:57:53.009Z,94455.78
2023-06-30T11:00:22.854Z,94446.19
2023-06-30T11:02:58.745Z,94456.59
2023-06-30T11:05:32.726Z,94457.59
2023-06-30T11:08:02.243Z,94451.81
2023-06-30T11:10:34.326Z,94445.97
2023-06-30T11:13:10.703Z,94446.31
2023-06-30T11:15:44.291Z,94449.56
2023-06-30T11:18:23.270Z,94444.19
2023-06-30T11:21:06.710Z,94450.16
2023-06-30T11:23:37.239Z,94442.66
2023-06-30T11:26:19.151Z,94441.22
2023-06-30T11:28:49.760Z,94434.13
2023-06-30T11:31:17.506Z,94426.75
2023-06-30T11:33:45.593Z,94428.31
2023-06-30T11:36:17.524Z,94417.66
2023-06-30T11:38:53.513Z,94416.56
2023-06-30T11:41:23.041Z,94423.28
2023-06-30T11:43:55.050Z,94426.56
2023-06-30T11:46:22.936Z,94419.00
2023-06-30T11:48:50.624Z,94420.38
2023-06-30T11:51:20.496Z,94416.25
2023-06-30T11:53:48.152Z,94415.56
2023-06-30T11:56:15.342Z,94411.34
2023-06-30T11:58:52.580Z,94405.44
2023-06-30T12:01:22.656Z,94404.00
2023-06-30T12:04:19.188Z,94395.31
2023-06-30T12:06:47.014Z,94381.47
2023-06-30T12:09:14.408Z,94393.38
2023-06-30T12:11:46.212Z,94375.47
2023-06-30T12:14:16.770Z,94386.38
2023-06-30T12:16:51.123Z,94379.91
2023-06-30T12:19:19.611Z,94368.88
2023-06-30T12:22:02.106Z,94360.78
2023-06-30T12:24:36.231Z,94357.22
2023-06-30T12:27:10.042Z,94362.94
2023-06-30T12:29:37.864Z,94353.44
2023-06-30T12:32:15.399Z,94361.78
2023-06-30T12:34:42.985Z,94353.31
2023-06-30T12:37:09.888Z,94360.34
2023-06-30T12:39:36.833Z,94354.28
2023-06-30T12:42:03.927Z,94344.91
2023-06-30T12:44:31.791Z,94340.81
2023-06-30T12:47:06.815Z,94339.53
2023-06-30T12:49:35.165Z,94332.69
2023-06-30T12:52:03.855Z,94336.53
2023-06-30T12:54:31.226Z,94323.66
2023-06-30T12:56:58.180Z,94323.41
2023-06-30T12:59:24.946Z,94326.41
2023-06-30T13:01:51.858Z,94319.38
2023-06-30T13:04:18.653Z,94316.19
2023-06-30T13:06:45.479Z,94317.03
2023-06-30T13:09:12.326Z,94314.00
2023-06-30T13:11:39.286Z,94307.34
2023-06-30T13:14:06.088Z,94303.47
2023-06-30T13:16:32.976Z,94303.03
2023-06-30T13:19:00.114Z,94311.97
2023-06-30T13:21:27.128Z,94309.78
2023-06-30T13:23:54.042Z,94304.44
2023-06-30T13:26:21.157Z,94304.16
2023-06-30T13:28:48.567Z,94304.63
2023-06-30T13:31:15.360Z,94309.34
2023-06-30T13:33:42.268Z,94299.31
2023-06-30T13:36:09.722Z,94309.06
2023-06-30T13:38:36.575Z,94303.28
2023-06-30T13:41:03.539Z,94305.56
2023-06-30T13:43:30.530Z,94300.72
2023-06-30T13:45:59.813Z,94298.69
2023-06-30T13:48:26.657Z,94298.28
2023-06-30T13:50:53.494Z,94297.53
2023-06-30T13:53:20.769Z,94293.97
2023-06-30T13:55:48.119Z,94287.47
2023-06-30T13:58:15.115Z,94289.34
2023-06-30T14:00:42.128Z,94277.28
2023-06-30T14:03:09.277Z,94287.72
2023-06-30T14:05:36.480Z,94288.13
2023-06-30T14:08:03.348Z,94283.97
2023-06-30T14:10:30.614Z,94284.41
2023-06-30T14:12:57.535Z,94281.28
2023-06-30T14:15:24.495Z,94279.56
2023-06-30T14:17:51.453Z,94284.19
2023-06-30T14:20:18.283Z,94269.50
2023-06-30T14:22:45.185Z,94281.69
2023-06-30T14:25:23.545Z,94278.97
2023-06-30T14:27:51.485Z,94280.88
2023-06-30T14:30:18.603Z,94280.94
2023-06-30T14:32:47.144Z,94277.56
2023-06-30T14:35:14.296Z,94281.75
2023-06-30T14:37:41.115Z,94280.75
2023-06-30T14:40:08.653Z,94266.16
2023-06-30T14:42:35.682Z,94263.72
2023-06-30T14:45:02.600Z,94267.50
2023-06-30T14:47:31.120Z,94273.84
2023-06-30T14:49:58.834Z,94268.03
2023-06-30T14:52:26.189Z,94273.88
2023-06-30T14:54:53.066Z,94275.28
2023-06-30T14:57:20.097Z,94280.72
2023-06-30T14:59:47.020Z,94283.34
2023-06-30T15:02:15.017Z,94288.53
2023-06-30T15:04:41.991Z,94298.53
2023-06-30T15:07:08.839Z,94307.75
2023-06-30T15:09:35.667Z,94310.22
2023-06-30T15:12:02.456Z,94311.34
2023-06-30T15:16:55.909Z,94306.69
2023-06-30T15:19:22.699Z,94299.03
2023-06-30T15:21:50.732Z,94288.81
2023-06-30T15:24:17.719Z,94289.41
2023-06-30T15:26:44.917Z,94288.09
2023-06-30T15:29:15.252Z,94291.16
2023-06-30T15:31:42.852Z,94285.22
2023-06-30T15:34:09.643Z,94287.03
2023-06-30T15:36:36.443Z,94289.38
2023-06-30T15:39:04.541Z,94285.88
2023-06-30T15:41:31.401Z,94288.47
2023-06-30T15:43:58.310Z,94282.88
2023-06-30T15:46:26.371Z,94271.88
2023-06-30T15:48:53.110Z,94277.81
2023-06-30T15:51:21.248Z,94278.25
2023-06-30T15:53:48.645Z,94265.72
2023-06-30T15:56:15.732Z,94265.19
2023-06-30T15:58:42.508Z,94269.97
2023-06-30T16:01:09.471Z,94262.44
2023-06-30T16:03:38.875Z,94254.63
2023-06-30T16:06:05.959Z,94249.13
2023-06-30T16:08:33.318Z,94245.78
2023-06-30T16:11:00.124Z,94244.69
2023-06-30T16:13:26.908Z,94258.81
2023-06-30T16:15:53.910Z,94252.13
2023-06-30T16:18:21.024Z,94250.28
2023-06-30T16:20:47.879Z,94258.00
2023-06-30T16:23:14.738Z,94255.22
2023-06-30T16:25:41.582Z,94258.38
2023-06-30T16:28:08.678Z,94264.38
2023-06-30T16:30:37.416Z,94258.31
2023-06-30T16:33:04.630Z,94257.50
2023-06-30T16:35:32.307Z,94258.91
2023-06-30T16:37:59.299Z,94255.59
2023-06-30T16:40:26.468Z,94257.97
2023-06-30T16:42:54.187Z,94269.06
2023-06-30T16:45:21.188Z,94262.13
2023-06-30T16:47:48.297Z,94268.13
2023-06-30T16:50:16.540Z,94264.22
2023-06-30T16:52:44.138Z,94261.88
2023-06-30T16:55:12.350Z,94262.56
2023-06-30T16:57:40.044Z,94266.66
2023-06-30T17:00:09.206Z,94261.63
2023-06-30T17:02:36.317Z,94257.22
2023-06-30T17:05:04.060Z,94254.97
2023-06-30T17:07:30.963Z,94262.66
2023-06-30T17:09:57.705Z,94259.22
2023-06-30T17:12:24.607Z,94270.31
2023-06-30T17:14:51.491Z,94269.47
2023-06-30T17:17:18.441Z,94261.88
2023-06-30T17:19:45.437Z,94265.41
2023-06-30T17:22:12.263Z,94262.81
2023-06-30T17:24:39.099Z,94271.09
2023-06-30T17:27:06.322Z,94269.91
2023-06-30T17:29:33.134Z,94268.75
2023-06-30T17:31:59.928Z,94264.41
2023-06-30T17:34:26.715Z,94277.63
2023-06-30T17:37:01.485Z,94278.44
2023-06-30T17:39:28.429Z,94277.13
2023-06-30T17:41:55.149Z,94276.56
2023-06-30T17:44:21.977Z,94278.75
2023-06-30T17:46:48.828Z,94274.13
2023-06-30T17:49:29.216Z,94271.66
2023-06-30T17:51:56.210Z,94279.31
2023-06-30T17:54:26.664Z,94275.34
2023-06-30T17:56:53.447Z,94291.03
2023-06-30T17:59:20.287Z,94289.06
2023-06-30T18:01:47.388Z,94294.84
2023-06-30T18:04:15.059Z,94289.22
2023-06-30T18:07:02.837Z,94277.34
2023-06-30T18:09:30.668Z,94283.16
2023-06-30T18:11:58.939Z,94289.69
2023-06-30T18:14:27.225Z,94298.00
2023-06-30T18:16:54.057Z,94296.81
2023-06-30T18:19:22.806Z,94296.50
2023-06-30T18:21:51.438Z,94299.47
2023-06-30T18:24:19.145Z,94298.56
2023-06-30T18:26:50.214Z,94301.94
2023-06-30T18:29:22.694Z,94303.72
2023-06-30T18:31:54.604Z,94310.44
2023-06-30T18:34:22.347Z,94317.47
2023-06-30T18:36:49.154Z,94321.31
2023-06-30T18:39:17.778Z,94325.94
2023-06-30T18:41:44.644Z,94318.56
2023-06-30T18:44:11.468Z,94318.31
2023-06-30T18:46:38.370Z,94318.94
2023-06-30T18:49:07.728Z,94333.94
2023-06-30T18:51:36.984Z,94329.53
2023-06-30T18:54:03.966Z,94323.00
2023-06-30T18:56:30.841Z,94326.53
2023-06-30T18:59:02.523Z,94324.59
2023-06-30T19:01:30.088Z,94323.16
2023-06-30T19:03:57.765Z,94336.66
2023-06-30T19:06:25.843Z,94326.03
2023-06-30T19:08:56.434Z,94328.50
2023-06-30T19:11:23.889Z,94334.00
2023-06-30T19:13:51.210Z,94338.19
2023-06-30T19:16:18.421Z,94329.81
2023-06-30T19:18:45.565Z,94339.34
2023-06-30T19:21:12.540Z,94342.13
2023-06-30T19:23:41.880Z,94341.59
2023-06-30T19:26:09.970Z,94356.56
2023-06-30T19:28:37.483Z,94355.00
2023-06-30T19:31:04.374Z,94355.66
2023-06-30T19:33:32.565Z,94357.56
2023-06-30T19:35:59.499Z,94355.19
2023-06-30T19:38:26.632Z,94364.22
2023-06-30T19:40:55.219Z,94359.25
2023-06-30T19:43:22.331Z,94360.03
2023-06-30T19:45:50.149Z,94363.13
2023-06-30T19:48:17.728Z,94361.94
2023-06-30T19:50:44.646Z,94365.28
2023-06-30T19:53:11.475Z,94372.31
2023-06-30T19:55:38.255Z,94368.53
2023-06-30T19:58:06.100Z,94367.31
2023-06-30T20:00:33.895Z,94375.03
2023-06-30T20:03:01.333Z,94376.25
2023-06-30T20:05:28.267Z,94370.97
2023-06-30T20:07:56.264Z,94371.53
2023-06-30T20:10:23.221Z,94369.09
2023-06-30T20:12:50.949Z,94373.53
2023-06-30T20:15:18.145Z,94377.13
2023-06-30T20:17:45.364Z,94371.97
2023-06-30T20:23:02.239Z,94371.00
2023-06-30T20:25:29.080Z,94368.69
2023-06-30T20:27:55.881Z,94360.38
2023-06-30T20:30:22.748Z,94370.50
2023-06-30T20:32:49.990Z,94368.59
2023-06-30T20:35:20.046Z,94362.25
2023-06-30T20:37:47.670Z,94365.72
2023-06-30T20:40:14.474Z,94353.16
2023-06-30T20:42:41.543Z,94358.72
2023-06-30T20:45:08.716Z,94358.84
2023-06-30T20:47:36.228Z,94364.19
2023-06-30T20:50:04.385Z,94358.44
2023-06-30T20:52:31.536Z,94360.34
2023-06-30T20:54:58.278Z,94360.22
2023-06-30T20:57:25.074Z,94362.69
2023-06-30T20:59:51.870Z,94362.66
2023-06-30T21:02:18.706Z,94365.19
2023-06-30T21:04:45.501Z,94361.44
2023-06-30T21:07:12.337Z,94351.41
2023-06-30T21:09:39.107Z,94357.59
2023-06-30T21:12:06.409Z,94361.19
2023-06-30T21:14:33.295Z,94361.28
2023-06-30T21:17:00.071Z,94362.09
2023-06-30T21:19:27.078Z,94360.50
2023-06-30T21:21:54.153Z,94362.09
2023-06-30T21:24:20.954Z,94366.78
2023-06-30T21:26:47.712Z,94367.03
2023-06-30T21:29:14.457Z,94370.41
2023-06-30T21:31:41.223Z,94365.91
2023-06-30T21:34:08.013Z,94364.16
2023-06-30T21:36:38.248Z,94365.75
2023-06-30T21:39:06.694Z,94365.94
2023-06-30T21:41:33.693Z,94378.69
2023-06-30T21:44:00.515Z,94394.44
2023-06-30T21:46:27.519Z,94389.72
2023-06-30T21:48:54.396Z,94396.00
2023-06-30T21:51:21.268Z,94384.03
2023-06-30T21:53:48.049Z,94385.41
2023-06-30T21:56:14.846Z,94386.00
2023-06-30T21:58:41.721Z,94394.03
2023-06-30T22:01:08.645Z,94393.19
2023-06-30T22:03:35.558Z,94385.00
2023-06-30T22:06:02.769Z,94384.50
2023-06-30T22:08:29.924Z,94393.53
2023-06-30T22:10:58.716Z,94386.25
2023-06-30T22:13:25.850Z,94397.50
2023-06-30T22:15:52.916Z,94397.38
2023-06-30T22:18:19.824Z,94396.84
2023-06-30T22:20:46.730Z,94403.41
2023-06-30T22:23:13.836Z,94400.97
2023-06-30T22:25:40.848Z,94401.91
2023-06-30T22:28:07.798Z,94404.84
2023-06-30T22:30:34.720Z,94410.66
2023-06-30T22:33:01.590Z,94406.34
2023-06-30T22:35:28.479Z,94400.41
2023-06-30T22:37:55.277Z,94401.75
2023-06-30T22:40:22.441Z,94402.50
2023-06-30T22:42:49.638Z,94405.56
2023-06-30T22:45:16.677Z,94410.06
2023-06-30T22:47:44.223Z,94409.59
2023-06-30T22:50:11.277Z,94400.91
2023-06-30T22:52:39.811Z,94410.38
2023-06-30T22:55:10.491Z,94398.81
2023-06-30T22:57:37.617Z,94414.13
2023-06-30T23:00:06.022Z,94406.69
2023-06-30T23:02:33.164Z,94405.41
2023-06-30T23:05:00.132Z,94398.19
2023-06-30T23:07:27.151Z,94404.00
2023-06-30T23:09:54.053Z,94399.06
2023-06-30T23:12:20.824Z,94400.97
2023-06-30T23:14:47.625Z,94395.31
2023-06-30T23:17:16.895Z,94402.59
2023-06-30T23:19:49.925Z,94403.53
2023-06-30T23:22:18.013Z,94398.69
2023-06-30T23:24:49.722Z,94397.59
2023-06-30T23:27:17.773Z,94394.09
2023-06-30T23:29:50.557Z,94401.53
2023-06-30T23:32:20.434Z,94397.09
2023-06-30T23:34:48.480Z,94399.16
2023-06-30T23:37:17.876Z,94399.53
2023-06-30T23:39:45.633Z,94396.31
2023-06-30T23:42:12.465Z,94398.41
2023-06-30T23:44:39.291Z,94393.06
2023-06-30T23:47:15.422Z,94398.56
2023-06-30T23:49:42.635Z,94391.63
2023-06-30T23:52:09.937Z,94386.94
2023-06-30T23:54:36.796Z,94391.72
2023-06-30T23:57:03.981Z,94392.53
2023-06-30T23:59:30.783Z,94392.06
